createdAt,value
2022-12-01T00:00:15.487Z,6.50
2022-12-01T00:03:09.371Z,6.50
2022-12-01T00:05:41.610Z,6.50
2022-12-01T00:08:30.126Z,6.50
2022-12-01T00:11:26.376Z,6.50
2022-12-01T00:14:35.020Z,6.50
2022-12-01T00:17:07.821Z,6.40
2022-12-01T00:19:43.145Z,6.40
2022-12-01T00:22:12.280Z,6.40
2022-12-01T00:24:45.427Z,6.40
2022-12-01T00:27:18.541Z,6.40
2022-12-01T00:30:11.406Z,6.40
2022-12-01T00:32:44.576Z,6.30
2022-12-01T00:35:15.595Z,6.30
2022-12-01T00:37:47.437Z,6.30
2022-12-01T00:40:22.170Z,6.30
2022-12-01T00:43:01.433Z,6.30
2022-12-01T00:45:56.678Z,6.30
2022-12-01T00:48:28.776Z,6.30
2022-12-01T00:51:02.989Z,6.30
2022-12-01T00:53:34.156Z,6.30
2022-12-01T00:56:23.291Z,6.20
2022-12-01T00:58:54.284Z,6.30
2022-12-01T01:01:22.935Z,6.30
2022-12-01T01:03:52.261Z,6.30
2022-12-01T01:06:43.208Z,6.20
2022-12-01T01:09:15.550Z,6.20
2022-12-01T01:12:24.059Z,6.10
2022-12-01T01:15:13.926Z,6.20
2022-12-01T01:17:46.002Z,6.10
2022-12-01T01:20:37.838Z,6.10
2022-12-01T01:23:16.048Z,6.20
2022-12-01T01:25:54.796Z,6.20
2022-12-01T01:28:48.530Z,6.10
2022-12-01T01:31:20.562Z,6.10
2022-12-01T01:34:15.325Z,6.10
2022-12-01T01:37:07.291Z,6.10
2022-12-01T01:39:38.959Z,6.10
2022-12-01T01:42:33.480Z,6.10
2022-12-01T01:45:04.762Z,6.10
2022-12-01T01:47:40.078Z,6.10
2022-12-01T01:50:13.262Z,6.00
2022-12-01T01:52:48.070Z,6.10
2022-12-01T01:56:04.908Z,6.10
2022-12-01T01:58:35.031Z,6.00
2022-12-01T02:01:08.523Z,6.00
2022-12-01T02:04:05.870Z,6.00
2022-12-01T02:06:36.166Z,6.00
2022-12-01T02:09:29.249Z,6.00
2022-12-01T02:12:15.424Z,6.00
2022-12-01T02:15:08.920Z,6.00
2022-12-01T02:17:47.322Z,6.00
2022-12-01T02:21:00.728Z,6.00
2022-12-01T02:24:04.270Z,6.00
2022-12-01T02:26:47.056Z,6.00
2022-12-01T02:29:58.380Z,6.00
2022-12-01T02:32:35.642Z,5.90
2022-12-01T02:35:17.818Z,6.00
2022-12-01T02:38:15.604Z,5.90
2022-12-01T02:40:48.624Z,5.90
2022-12-01T02:43:30.376Z,5.90
2022-12-01T02:46:04.212Z,5.90
2022-12-01T02:48:57.334Z,5.90
2022-12-01T02:51:31.241Z,5.90
2022-12-01T02:54:05.252Z,5.80
2022-12-01T02:56:34.653Z,5.80
2022-12-01T02:59:03.338Z,5.80
2022-12-01T03:02:26.380Z,5.80
2022-12-01T03:05:02.599Z,5.80
2022-12-01T03:07:49.260Z,5.80
2022-12-01T03:10:39.850Z,5.80
2022-12-01T03:13:20.455Z,5.80
2022-12-01T03:15:58.657Z,5.70
2022-12-01T03:18:35.021Z,5.80
2022-12-01T03:21:12.702Z,5.70
2022-12-01T03:24:03.741Z,5.70
2022-12-01T03:26:37.010Z,5.60
2022-12-01T03:29:13.193Z,5.70
2022-12-01T03:32:06.920Z,5.70
2022-12-01T03:34:41.130Z,5.70
2022-12-01T03:37:15.488Z,5.70
2022-12-01T03:39:47.003Z,5.70
2022-12-01T03:42:19.424Z,5.60
2022-12-01T03:44:50.930Z,5.60
2022-12-01T03:47:23.421Z,5.60
2022-12-01T03:50:14.223Z,5.60
2022-12-01T03:52:54.348Z,5.70
2022-12-01T03:55:27.946Z,5.60
2022-12-01T03:58:02.455Z,5.60
2022-12-01T04:00:34.366Z,5.60
2022-12-01T04:03:09.969Z,5.60
2022-12-01T04:05:38.850Z,5.60
2022-12-01T04:08:10.130Z,5.60
2022-12-01T04:10:40.755Z,5.60
2022-12-01T04:13:16.351Z,5.50
2022-12-01T04:15:47.326Z,5.50
2022-12-01T04:18:17.133Z,5.50
2022-12-01T04:20:47.475Z,5.50
2022-12-01T04:23:33.293Z,5.60
2022-12-01T04:26:14.228Z,5.50
2022-12-01T04:28:43.727Z,5.50
2022-12-01T04:31:13.440Z,5.50
2022-12-01T04:33:43.227Z,5.50
2022-12-01T04:36:13.606Z,5.50
2022-12-01T04:38:45.605Z,5.50
2022-12-01T04:41:40.071Z,5.50
2022-12-01T04:44:09.610Z,5.50
2022-12-01T04:46:39.906Z,5.40
2022-12-01T04:49:08.602Z,5.40
2022-12-01T04:51:39.888Z,5.50
2022-12-01T04:54:10.844Z,5.40
2022-12-01T04:56:40.632Z,5.40
2022-12-01T04:59:09.240Z,5.40
2022-12-01T05:01:37.835Z,5.40
2022-12-01T05:04:27.794Z,5.40
2022-12-01T05:06:58.871Z,5.40
2022-12-01T05:09:48.892Z,5.40
2022-12-01T05:12:22.517Z,5.40
2022-12-01T05:15:11.707Z,5.30
2022-12-01T05:17:41.149Z,5.30
2022-12-01T05:20:37.573Z,5.40
2022-12-01T05:23:12.284Z,5.30
2022-12-01T05:25:47.033Z,5.30
2022-12-01T05:28:17.961Z,5.30
2022-12-01T05:31:07.455Z,5.30
2022-12-01T05:33:37.487Z,5.30
2022-12-01T05:36:09.212Z,5.30
2022-12-01T05:38:37.625Z,5.30
2022-12-01T05:41:33.137Z,5.30
2022-12-01T05:44:02.162Z,5.30
2022-12-01T05:46:31.979Z,5.20
2022-12-01T05:49:01.895Z,5.30
2022-12-01T05:51:30.405Z,5.40
2022-12-01T05:54:02.163Z,5.20
2022-12-01T05:56:32.167Z,5.20
2022-12-01T05:59:00.956Z,5.20
2022-12-01T06:01:29.695Z,5.30
2022-12-01T06:03:57.693Z,5.20
2022-12-01T06:06:26.093Z,5.20
2022-12-01T06:08:54.296Z,5.20
2022-12-01T06:11:22.406Z,5.30
2022-12-01T06:13:51.849Z,5.30
2022-12-01T06:16:20.385Z,5.20
2022-12-01T06:18:48.525Z,5.30
2022-12-01T06:21:16.670Z,5.30
2022-12-01T06:23:45.340Z,5.30
2022-12-01T06:26:13.931Z,5.40
2022-12-01T06:28:41.945Z,5.40
2022-12-01T06:31:11.511Z,5.50
2022-12-01T06:33:39.635Z,5.50
2022-12-01T06:36:08.819Z,5.50
2022-12-01T06:38:38.323Z,5.50
2022-12-01T06:41:06.831Z,5.50
2022-12-01T06:43:37.578Z,5.60
2022-12-01T06:46:06.367Z,5.60
2022-12-01T06:48:35.948Z,5.60
2022-12-01T06:51:04.637Z,5.60
2022-12-01T06:53:32.701Z,5.60
2022-12-01T06:56:01.972Z,5.70
2022-12-01T06:58:30.673Z,5.70
2022-12-01T07:00:59.801Z,5.70
2022-12-01T07:03:28.323Z,5.70
2022-12-01T07:05:59.014Z,5.70
2022-12-01T07:08:28.457Z,5.70
2022-12-01T07:11:00.439Z,5.80
2022-12-01T07:13:33.378Z,5.80
2022-12-01T07:16:03.108Z,5.80
2022-12-01T07:18:31.522Z,5.80
2022-12-01T07:21:03.872Z,5.90
2022-12-01T07:23:32.345Z,5.90
2022-12-01T07:26:02.033Z,5.90
2022-12-01T07:28:30.523Z,5.90
2022-12-01T07:31:04.293Z,5.90
2022-12-01T07:33:32.642Z,5.90
2022-12-01T07:36:02.313Z,5.90
2022-12-01T07:38:30.925Z,5.90
2022-12-01T07:41:03.702Z,5.90
2022-12-01T07:43:32.462Z,5.90
2022-12-01T07:46:06.530Z,5.90
2022-12-01T07:48:35.089Z,6.00
2022-12-01T07:51:05.001Z,6.00
2022-12-01T07:53:33.260Z,6.00
2022-12-01T07:56:05.678Z,6.00
2022-12-01T07:58:57.994Z,6.00
2022-12-01T08:01:46.255Z,6.00
2022-12-01T08:04:14.378Z,6.00
2022-12-01T08:06:43.887Z,6.10
2022-12-01T08:09:12.149Z,6.10
2022-12-01T08:11:40.058Z,6.10
2022-12-01T08:14:08.166Z,6.10
2022-12-01T08:16:36.696Z,6.30
2022-12-01T08:19:04.742Z,6.10
2022-12-01T08:21:32.724Z,6.20
2022-12-01T08:24:02.046Z,6.20
2022-12-01T08:26:30.117Z,6.30
2022-12-01T08:28:58.994Z,6.40
2022-12-01T08:31:29.430Z,6.30
2022-12-01T08:33:57.937Z,6.40
2022-12-01T08:36:26.666Z,6.40
2022-12-01T08:38:56.603Z,6.50
2022-12-01T08:41:27.036Z,6.40
2022-12-01T08:43:59.165Z,6.60
2022-12-01T08:46:29.453Z,6.50
2022-12-01T08:48:57.968Z,6.50
2022-12-01T08:51:27.160Z,6.60
2022-12-01T08:53:57.698Z,6.60
2022-12-01T08:56:30.327Z,6.70
2022-12-01T08:58:58.657Z,6.70
2022-12-01T09:01:26.964Z,6.80
2022-12-01T09:04:07.711Z,6.80
2022-12-01T09:06:39.569Z,6.70
2022-12-01T09:09:08.175Z,6.80
2022-12-01T09:11:38.004Z,6.80
2022-12-01T09:14:06.545Z,6.80
2022-12-01T09:16:34.812Z,6.90
2022-12-01T09:19:03.516Z,6.90
2022-12-01T09:21:33.732Z,7.00
2022-12-01T09:24:02.545Z,6.90
2022-12-01T09:26:31.366Z,7.00
2022-12-01T09:29:03.374Z,7.10
2022-12-01T09:31:32.172Z,7.00
2022-12-01T09:34:03.010Z,7.10
2022-12-01T09:36:33.231Z,7.10
2022-12-01T09:39:02.368Z,7.20
2022-12-01T09:41:35.306Z,7.20
2022-12-01T09:44:15.137Z,7.20
2022-12-01T09:46:47.848Z,7.30
2022-12-01T09:49:22.983Z,7.30
2022-12-01T09:51:52.581Z,7.40
2022-12-01T09:54:21.194Z,7.40
2022-12-01T09:56:53.539Z,7.50
2022-12-01T09:59:26.360Z,7.50
2022-12-01T10:01:59.434Z,7.50
2022-12-01T10:04:37.400Z,7.60
2022-12-01T10:07:11.838Z,7.60
2022-12-01T10:09:45.931Z,7.70
2022-12-01T10:12:17.388Z,7.70
2022-12-01T10:14:50.115Z,7.70
2022-12-01T10:17:27.174Z,7.70
2022-12-01T10:20:03.725Z,7.80
2022-12-01T10:22:48.750Z,7.80
2022-12-01T10:25:23.032Z,7.80
2022-12-01T10:28:13.739Z,7.80
2022-12-01T10:30:51.234Z,7.90
2022-12-01T10:33:26.058Z,7.90
2022-12-01T10:35:55.479Z,7.90
2022-12-01T10:38:28.947Z,7.90
2022-12-01T10:41:01.345Z,7.80
2022-12-01T10:43:34.687Z,7.80
2022-12-01T10:46:25.187Z,7.80
2022-12-01T10:48:55.898Z,7.80
2022-12-01T10:51:25.167Z,7.70
2022-12-01T10:54:00.679Z,7.70
2022-12-01T10:56:29.671Z,7.70
2022-12-01T10:59:02.761Z,7.70
2022-12-01T11:01:35.868Z,7.70
2022-12-01T11:04:08.599Z,7.70
2022-12-01T11:06:38.422Z,7.70
2022-12-01T11:09:22.933Z,7.70
2022-12-01T11:11:58.062Z,7.70
2022-12-01T11:14:34.811Z,7.60
2022-12-01T11:17:28.409Z,7.70
2022-12-01T11:20:17.978Z,7.70
2022-12-01T11:22:46.183Z,7.70
2022-12-01T11:25:21.759Z,7.70
2022-12-01T11:27:54.164Z,7.70
2022-12-01T11:30:24.560Z,7.70
2022-12-01T11:32:58.260Z,7.70
2022-12-01T11:35:30.622Z,7.70
2022-12-01T11:38:28.419Z,7.70
2022-12-01T11:40:51.050Z,7.70
2022-12-01T11:43:26.020Z,7.70
2022-12-01T11:45:55.646Z,7.70
2022-12-01T11:48:30.667Z,7.70
2022-12-01T11:51:05.570Z,7.80
2022-12-01T11:53:36.216Z,7.80
2022-12-01T11:56:20.890Z,7.70
2022-12-01T11:58:50.609Z,7.80
2022-12-01T12:01:32.284Z,7.80
2022-12-01T12:04:11.420Z,7.80
2022-12-01T12:06:47.315Z,7.80
2022-12-01T12:09:30.169Z,7.80
2022-12-01T12:12:06.414Z,7.80
2022-12-01T12:14:48.569Z,7.80
2022-12-01T12:17:28.773Z,7.80
2022-12-01T12:20:26.948Z,7.80
2022-12-01T12:23:10.058Z,7.90
2022-12-01T12:25:54.340Z,7.80
2022-12-01T12:28:37.039Z,7.80
2022-12-01T12:31:13.615Z,7.80
2022-12-01T12:33:55.904Z,7.80
2022-12-01T12:36:34.456Z,7.80
2022-12-01T12:39:17.309Z,7.80
2022-12-01T12:41:48.455Z,7.80
2022-12-01T12:44:35.371Z,7.90
2022-12-01T12:47:14.383Z,7.90
2022-12-01T12:49:46.191Z,7.80
2022-12-01T12:52:18.369Z,7.80
2022-12-01T12:54:53.444Z,7.80
2022-12-01T12:57:30.030Z,7.80
2022-12-01T13:00:03.504Z,7.80
2022-12-01T13:02:37.946Z,7.90
2022-12-01T13:05:14.075Z,7.80
2022-12-01T13:07:48.645Z,7.80
2022-12-01T13:10:27.192Z,7.80
2022-12-01T13:13:01.436Z,7.80
2022-12-01T13:15:31.579Z,7.90
2022-12-01T13:18:04.734Z,7.80
2022-12-01T13:20:37.895Z,7.80
2022-12-01T13:23:07.845Z,7.90
2022-12-01T13:25:40.468Z,7.80
2022-12-01T13:28:18.428Z,7.80
2022-12-01T13:31:03.078Z,7.80
2022-12-01T13:33:32.175Z,7.80
2022-12-01T13:36:30.303Z,7.80
2022-12-01T13:38:59.064Z,7.80
2022-12-01T13:41:33.113Z,7.80
2022-12-01T13:44:07.490Z,7.80
2022-12-01T13:46:52.857Z,7.80
2022-12-01T13:49:42.296Z,7.80
2022-12-01T13:52:31.390Z,7.80
2022-12-01T13:55:27.272Z,7.80
2022-12-01T13:58:26.821Z,7.80
2022-12-01T14:00:54.892Z,7.90
2022-12-01T14:03:41.520Z,7.80
2022-12-01T14:06:21.931Z,7.80
2022-12-01T14:08:51.123Z,7.80
2022-12-01T14:11:23.424Z,7.80
2022-12-01T14:13:57.130Z,7.80
2022-12-01T14:16:26.216Z,7.80
2022-12-01T14:18:57.116Z,7.80
2022-12-01T14:21:47.899Z,7.80
2022-12-01T14:24:25.232Z,7.80
2022-12-01T14:26:54.138Z,7.80
2022-12-01T14:29:38.380Z,7.80
2022-12-01T14:32:27.228Z,7.70
2022-12-01T14:34:59.652Z,7.70
2022-12-01T14:37:36.738Z,7.70
2022-12-01T14:40:09.403Z,7.70
2022-12-01T14:42:58.419Z,7.70
2022-12-01T14:45:34.132Z,7.70
2022-12-01T14:48:05.171Z,7.60
2022-12-01T14:50:45.061Z,7.70
2022-12-01T14:53:22.619Z,7.60
2022-12-01T14:55:56.413Z,7.60
2022-12-01T14:58:28.426Z,7.50
2022-12-01T15:01:05.782Z,7.50
2022-12-01T15:03:40.538Z,7.50
2022-12-01T15:06:09.806Z,7.50
2022-12-01T15:08:45.874Z,7.50
2022-12-01T15:11:25.641Z,7.50
2022-12-01T15:13:56.199Z,7.50
2022-12-01T15:16:27.926Z,7.50
2022-12-01T15:18:56.442Z,7.40
2022-12-01T15:21:27.302Z,7.40
2022-12-01T15:23:57.855Z,7.40
2022-12-01T15:26:28.630Z,7.30
2022-12-01T15:29:16.117Z,7.30
2022-12-01T15:31:48.043Z,7.30
2022-12-01T15:34:18.797Z,7.30
2022-12-01T15:36:48.605Z,7.30
2022-12-01T15:39:19.222Z,7.20
2022-12-01T15:41:54.131Z,7.20
2022-12-01T15:44:27.877Z,7.20
2022-12-01T15:46:58.436Z,7.20
2022-12-01T15:49:29.997Z,7.20
2022-12-01T15:52:08.424Z,7.10
2022-12-01T15:54:40.010Z,7.10
2022-12-01T15:57:09.262Z,7.10
2022-12-01T15:59:40.888Z,7.00
2022-12-01T16:02:24.951Z,7.00
2022-12-01T16:05:02.275Z,7.00
2022-12-01T16:08:11.059Z,7.00
2022-12-01T16:10:35.504Z,6.90
2022-12-01T16:13:39.303Z,6.80
2022-12-01T16:16:32.071Z,6.80
2022-12-01T16:19:03.418Z,6.80
2022-12-01T16:21:36.129Z,6.70
2022-12-01T16:24:06.742Z,6.70
2022-12-01T16:26:35.659Z,6.70
2022-12-01T16:29:03.894Z,6.60
2022-12-01T16:31:34.090Z,6.60
2022-12-01T16:34:18.495Z,6.60
2022-12-01T16:36:53.501Z,6.60
2022-12-01T16:39:21.786Z,6.50
2022-12-01T16:41:49.985Z,6.50
2022-12-01T16:44:28.418Z,6.50
2022-12-01T16:46:56.976Z,6.50
2022-12-01T16:49:26.502Z,6.40
2022-12-01T16:51:56.918Z,6.40
2022-12-01T16:54:26.673Z,6.40
2022-12-01T16:56:55.932Z,6.30
2022-12-01T16:59:24.830Z,6.30
2022-12-01T17:01:53.060Z,6.30
2022-12-01T17:04:21.868Z,6.30
2022-12-01T17:06:51.982Z,6.30
2022-12-01T17:09:20.426Z,6.20
2022-12-01T17:11:50.614Z,6.30
2022-12-01T17:14:18.542Z,6.20
2022-12-01T17:16:47.460Z,6.20
2022-12-01T17:19:16.530Z,6.20
2022-12-01T17:21:45.425Z,6.20
2022-12-01T17:24:19.156Z,6.10
2022-12-01T17:26:47.809Z,6.10
2022-12-01T17:29:15.811Z,6.10
2022-12-01T17:31:44.198Z,6.00
2022-12-01T17:34:14.149Z,6.00
2022-12-01T17:36:43.256Z,6.00
2022-12-01T17:39:11.497Z,6.00
2022-12-01T17:41:42.260Z,5.90
2022-12-01T17:44:10.698Z,5.90
2022-12-01T17:46:38.991Z,5.90
2022-12-01T17:49:09.806Z,5.90
2022-12-01T17:51:38.658Z,5.90
2022-12-01T17:54:06.809Z,5.90
2022-12-01T17:56:35.508Z,5.90
2022-12-01T17:59:06.116Z,5.90
2022-12-01T18:01:34.464Z,5.80
2022-12-01T18:04:04.648Z,5.90
2022-12-01T18:06:33.245Z,5.80
2022-12-01T18:09:01.874Z,5.90
2022-12-01T18:11:31.182Z,5.90
2022-12-01T18:14:02.584Z,5.90
2022-12-01T18:16:36.586Z,5.90
2022-12-01T18:19:05.359Z,5.90
2022-12-01T18:21:33.794Z,5.90
2022-12-01T18:24:04.097Z,5.90
2022-12-01T18:26:34.015Z,5.90
2022-12-01T18:29:04.868Z,6.00
2022-12-01T18:31:36.195Z,5.90
2022-12-01T18:34:07.100Z,5.90
2022-12-01T18:36:37.972Z,5.90
2022-12-01T18:39:08.924Z,5.90
2022-12-01T18:41:37.803Z,5.90
2022-12-01T18:44:06.779Z,5.80
2022-12-01T18:46:36.477Z,5.90
2022-12-01T18:49:25.073Z,5.90
2022-12-01T18:51:54.005Z,5.90
2022-12-01T18:54:22.208Z,5.90
2022-12-01T18:56:55.307Z,5.90
2022-12-01T18:59:23.815Z,5.90
2022-12-01T19:01:54.068Z,5.90
2022-12-01T19:04:22.659Z,5.90
2022-12-01T19:06:50.968Z,5.90
2022-12-01T19:09:19.690Z,6.00
2022-12-01T19:11:48.209Z,6.00
2022-12-01T19:14:18.904Z,6.00
2022-12-01T19:16:48.436Z,6.00
2022-12-01T19:19:43.674Z,6.10
2022-12-01T19:22:17.899Z,6.10
2022-12-01T19:24:50.229Z,6.10
2022-12-01T19:27:22.028Z,6.10
2022-12-01T19:29:57.021Z,6.10
2022-12-01T19:32:26.923Z,6.10
2022-12-01T19:35:02.390Z,6.20
2022-12-01T19:37:31.668Z,6.20
2022-12-01T19:40:20.919Z,6.20
2022-12-01T19:42:50.687Z,6.20
2022-12-01T19:45:21.497Z,6.20
2022-12-01T19:47:53.726Z,6.20
2022-12-01T19:50:24.463Z,6.20
2022-12-01T19:53:17.079Z,6.30
2022-12-01T19:55:45.982Z,6.30
2022-12-01T19:58:15.944Z,6.30
2022-12-01T20:00:48.138Z,6.30
2022-12-01T20:03:17.350Z,6.30
2022-12-01T20:05:47.669Z,6.30
2022-12-01T20:08:36.337Z,6.30
2022-12-01T20:11:25.418Z,6.40
2022-12-01T20:13:54.821Z,6.40
2022-12-01T20:16:25.893Z,6.40
2022-12-01T20:18:55.792Z,6.40
2022-12-01T20:21:31.133Z,6.40
2022-12-01T20:24:02.411Z,6.50
2022-12-01T20:26:34.039Z,6.40
2022-12-01T20:29:04.388Z,6.40
2022-12-01T20:31:36.096Z,6.50
2022-12-01T20:34:11.377Z,6.50
2022-12-01T20:36:52.044Z,6.50
2022-12-01T20:39:23.196Z,6.50
2022-12-01T20:41:55.192Z,6.50
2022-12-01T20:44:29.432Z,6.50
2022-12-01T20:47:27.554Z,6.60
2022-12-01T20:50:00.760Z,6.60
2022-12-01T20:52:31.306Z,6.60
2022-12-01T20:55:04.838Z,6.60
2022-12-01T20:57:37.998Z,6.60
2022-12-01T21:00:13.219Z,6.60
2022-12-01T21:03:04.026Z,6.60
2022-12-01T21:05:35.685Z,6.70
2022-12-01T21:08:05.884Z,6.70
2022-12-01T21:10:36.518Z,6.70
2022-12-01T21:13:37.464Z,6.70
2022-12-01T21:16:13.841Z,6.70
2022-12-01T21:18:51.255Z,6.70
2022-12-01T21:21:24.611Z,6.70
2022-12-01T21:24:11.356Z,6.70
2022-12-01T21:26:40.992Z,6.70
2022-12-01T21:29:20.600Z,6.80
2022-12-01T21:32:14.829Z,6.70
2022-12-01T21:34:44.924Z,6.80
2022-12-01T21:37:26.575Z,6.80
2022-12-01T21:39:58.890Z,6.80
2022-12-01T21:42:29.464Z,6.80
2022-12-01T21:45:50.458Z,6.70
2022-12-01T21:48:41.016Z,6.80
2022-12-01T21:51:20.435Z,6.80
2022-12-01T21:53:52.350Z,6.80
2022-12-01T21:56:25.032Z,6.80
2022-12-01T21:58:59.064Z,6.80
2022-12-01T22:01:31.868Z,6.80
2022-12-01T22:04:21.765Z,6.80
2022-12-01T22:06:53.739Z,6.80
2022-12-01T22:09:46.674Z,6.80
2022-12-01T22:12:46.483Z,6.90
2022-12-01T22:15:35.252Z,6.80
2022-12-01T22:18:06.227Z,6.80
2022-12-01T22:20:34.649Z,6.80
2022-12-01T22:23:06.610Z,6.80
2022-12-01T22:25:56.830Z,6.80
2022-12-01T22:28:53.826Z,6.80
2022-12-01T22:31:24.002Z,6.80
2022-12-01T22:34:02.722Z,6.80
2022-12-01T22:36:33.461Z,6.70
2022-12-01T22:39:03.860Z,6.80
2022-12-01T22:41:54.054Z,6.80
2022-12-01T22:44:24.691Z,6.80
2022-12-01T22:47:13.882Z,6.70
2022-12-01T22:49:43.464Z,6.70
2022-12-01T22:52:21.716Z,6.70
2022-12-01T22:54:52.307Z,6.70
2022-12-01T22:57:31.487Z,6.70
2022-12-01T23:00:16.811Z,6.70
2022-12-01T23:02:46.900Z,6.70
2022-12-01T23:05:24.098Z,6.70
2022-12-01T23:07:56.834Z,6.70
2022-12-01T23:10:27.859Z,6.70
2022-12-01T23:13:01.091Z,6.60
2022-12-01T23:15:53.280Z,6.60
2022-12-01T23:18:23.407Z,6.60
2022-12-01T23:20:54.332Z,6.60
2022-12-01T23:23:29.545Z,6.70
2022-12-01T23:26:00.323Z,6.50
2022-12-01T23:28:56.635Z,6.60
2022-12-01T23:31:51.194Z,6.60
2022-12-01T23:34:22.085Z,6.50
2022-12-01T23:36:51.858Z,6.50
2022-12-01T23:39:25.076Z,6.60
2022-12-01T23:42:13.807Z,6.50
2022-12-01T23:44:45.845Z,6.50
2022-12-01T23:47:21.833Z,6.50
2022-12-01T23:49:55.418Z,6.50
2022-12-01T23:52:24.435Z,6.50
2022-12-01T23:54:53.189Z,6.40
2022-12-01T23:57:25.007Z,6.50
2022-12-01T23:59:56.953Z,6.50
